Hlavní strana
METAR-TAF:

METAR-TAF

Letiště :

Houston, Texas, Spojené státy americké

zeměpisná šířka: 29-59-33N, zeměpisná délka: 095-21-50W, výška: 29 m

Aktuální stav počasí

Zpráva byla vytvořena před 30 minutami, v 18:53 UTC
Západoseverozápadní vítr 8 kt s nárazy do 17 kt
Teplota 25°C
Vlhkost vzduchu 41%
Tlak 1017 hPa
Viditelnost: 16.1 km
Skoro jasno ve výšce 5000 ft

METAR: KIAH 231853Z 30008G17KT 10SM FEW050 25/11 A3004 RMK AO2 SLP171 T02500111

Čas: 14:23 (19:23 UTC)

Předpověď počasí

Zpráva byla vytvořena před 2 hodinami a 2 minutami, v 17:21 UTC
Předpověď platná od 23 v 18 UTC do 24 v 24 UTC
Severozápadní vítr 11 kt
Viditelnost: 10 km
Polojasno ve výšce 25000 ft

TAF: KIAH 231721Z 2318/2424 32011KT P6SM SCT250

Stav a předpovědi počasí z více než 4 000 letišť (zprávy METAR a TAF).

Červené a žluté tečky na mapě představují dostupné meteorologické stanice.

Když kurzor umístíte na tečku, zobrazí se název stanice.

Pak kliknutím zobrazíte stav a předpověď počasí.

Chcete-li změnit mapu, kliknutím na zelené tlačítko se znaménkem +mapu přiblížíte, kliknutím na zelené tlačítko se znaménkem – mapu oddálíte a kliknutím na zelené šipky přejdete na sousední mapy.


METAR-TAF: